createdAt,value
2022-08-08T00:01:09.225Z,13.64
2022-08-08T00:05:10.301Z,13.31
2022-08-08T00:10:02.515Z,13.22
2022-08-08T00:15:08.237Z,12.92
2022-08-08T00:20:02.709Z,12.49
2022-08-08T00:25:02.408Z,12.07
2022-08-08T00:30:03.854Z,11.51
2022-08-08T00:35:04.721Z,11.11
2022-08-08T00:41:15.190Z,11.16
2022-08-08T00:45:03.565Z,11.02
2022-08-08T00:50:02.784Z,10.77
2022-08-08T00:55:04.336Z,11.14
2022-08-08T01:00:06.782Z,12.23
2022-08-08T01:05:04.145Z,12.45
2022-08-08T01:10:06.528Z,12.73
2022-08-08T01:15:07.925Z,12.97
2022-08-08T01:20:04.729Z,12.39
2022-08-08T01:25:16.778Z,11.8
2022-08-08T01:30:03.876Z,11.1
2022-08-08T01:35:12.726Z,10.56
2022-08-08T01:40:03.523Z,10.17
2022-08-08T01:45:04.005Z,10.29
2022-08-08T01:50:03.446Z,10.21
2022-08-08T01:56:31.392Z,9.81
2022-08-08T02:00:04.047Z,9.75
2022-08-08T02:05:03.294Z,9.77
2022-08-08T02:10:12.683Z,9.75
2022-08-08T02:15:03.976Z,9.54
2022-08-08T02:21:03.366Z,9.45
2022-08-08T02:25:16.679Z,9.43
2022-08-08T02:30:03.374Z,9.59
2022-08-08T02:35:11.963Z,9.71
2022-08-08T02:40:04.090Z,9.48
2022-08-08T02:45:18.460Z,9.29
2022-08-08T02:50:03.863Z,9.31
2022-08-08T02:55:21.344Z,9.43
2022-08-08T03:00:33.952Z,9.3
2022-08-08T03:05:11.256Z,9.31
2022-08-08T03:10:04.482Z,9.2
2022-08-08T03:16:06.978Z,9.15
2022-08-08T03:20:04.145Z,9.11
2022-08-08T03:25:02.802Z,9.23
2022-08-08T03:30:03.463Z,9.19
2022-08-08T03:35:04.325Z,9.09
2022-08-08T03:40:04.707Z,9.14
2022-08-08T03:46:09.798Z,9.22
2022-08-08T03:50:04.153Z,9.27
2022-08-08T03:55:55.376Z,9.23
2022-08-08T04:00:18.814Z,9.41
2022-08-08T04:05:02.633Z,9.51
2022-08-08T04:10:06.089Z,10.3
2022-08-08T04:15:03.289Z,10.73
2022-08-08T04:20:05.285Z,10.93
2022-08-08T04:25:02.836Z,10.71
2022-08-08T04:30:20.140Z,10.67
2022-08-08T04:35:03.204Z,10.85
2022-08-08T04:40:12.337Z,11.43
2022-08-08T04:45:02.675Z,11.85
2022-08-08T04:50:06.123Z,12.08
2022-08-08T04:55:06.702Z,12.34
2022-08-08T05:00:02.543Z,13.57
2022-08-08T05:05:04.995Z,14.75
2022-08-08T05:10:04.184Z,15.95
2022-08-08T05:15:05.479Z,16.7
2022-08-08T05:20:15.083Z,17.56
2022-08-08T05:25:03.132Z,18.66
2022-08-08T05:30:03.866Z,18.69
2022-08-08T05:35:05.974Z,19.7
2022-08-08T05:40:04.708Z,19.81
2022-08-08T05:45:55.054Z,20.05
2022-08-08T05:50:04.646Z,20.95
2022-08-08T05:55:14.412Z,21.02
2022-08-08T06:00:26.131Z,21.11
2022-08-08T06:05:36.314Z,21.64
2022-08-08T06:10:10.952Z,21.88
2022-08-08T06:15:06.520Z,21.39
2022-08-08T06:20:03.552Z,21.98
2022-08-08T06:25:03.215Z,21.84
2022-08-08T06:30:03.296Z,22.37
2022-08-08T06:36:10.388Z,22.78
2022-08-08T06:40:04.122Z,23.46
2022-08-08T06:45:05.977Z,23.78
2022-08-08T06:50:04.672Z,23.83
2022-08-08T06:55:09.077Z,24.2
2022-08-08T07:00:13.353Z,24.67
2022-08-08T07:05:05.215Z,24.83
2022-08-08T07:10:08.824Z,25.61
2022-08-08T07:15:05.640Z,26.21
2022-08-08T07:20:03.077Z,27.63
2022-08-08T07:25:07.238Z,26.1
2022-08-08T07:30:08.338Z,27.12
2022-08-08T07:35:06.100Z,26.42
2022-08-08T07:40:03.803Z,26.7
2022-08-08T07:45:03.183Z,27.12
2022-08-08T07:50:02.875Z,27.44
2022-08-08T08:00:03.325Z,27.4
2022-08-08T08:05:04.099Z,27.6
2022-08-08T08:10:05.393Z,27.53
2022-08-08T08:15:05.270Z,27.79
2022-08-08T08:20:02.643Z,29.09
2022-08-08T08:25:08.898Z,28.32
2022-08-08T08:30:02.526Z,27.18
2022-08-08T08:35:03.826Z,29.26
2022-08-08T08:40:03.550Z,28.32
2022-08-08T08:45:23.577Z,28.21
2022-08-08T08:50:05.021Z,27.4
2022-08-08T08:55:05.395Z,28.06
2022-08-08T09:00:19.009Z,28.55
2022-08-08T09:05:03.011Z,28.2
2022-08-08T09:10:05.100Z,28.11
2022-08-08T09:15:06.612Z,27.62
2022-08-08T09:22:06.718Z,27.38
2022-08-08T09:25:02.770Z,27.95
2022-08-08T09:30:02.830Z,29.11
2022-08-08T09:35:08.750Z,28.93
2022-08-08T09:40:11.769Z,28.08
2022-08-08T09:45:20.765Z,29.3
2022-08-08T09:50:11.943Z,28.47
2022-08-08T09:55:05.534Z,29.27
2022-08-08T10:00:57.880Z,30.14
2022-08-08T10:05:20.085Z,30.22
2022-08-08T10:10:07.613Z,30.11
2022-08-08T10:15:19.045Z,28.68
2022-08-08T10:20:04.541Z,29.01
2022-08-08T10:25:02.729Z,29.23
2022-08-08T10:30:04.674Z,30.31
2022-08-08T10:35:03.826Z,30.44
2022-08-08T10:40:07.977Z,29.69
2022-08-08T10:45:09.870Z,28.72
2022-08-08T10:50:05.006Z,31.07
2022-08-08T10:55:09.250Z,30.25
2022-08-08T11:00:03.442Z,28.96
2022-08-08T11:05:18.184Z,27.44
2022-08-08T11:10:03.852Z,26.06
2022-08-08T11:15:02.850Z,26.31
2022-08-08T11:20:13.431Z,26.45
2022-08-08T11:25:16.635Z,27.56
2022-08-08T11:30:27.686Z,29.24
2022-08-08T11:35:43.427Z,30.05
2022-08-08T11:40:05.141Z,29.01
2022-08-08T11:45:03.697Z,28.96
2022-08-08T11:50:03.354Z,27.38
2022-08-08T11:55:06.366Z,27.08
2022-08-08T12:00:06.924Z,29.89
2022-08-08T12:05:02.770Z,29.2
2022-08-08T12:10:09.443Z,28.8
2022-08-08T12:15:09.677Z,30.84
2022-08-08T12:20:04.344Z,29.88
2022-08-08T12:25:03.327Z,28.85
2022-08-08T12:30:04.780Z,30.71
2022-08-08T12:35:18.847Z,29.85
2022-08-08T12:40:05.639Z,30.17
2022-08-08T12:45:55.042Z,29.45
2022-08-08T12:50:02.955Z,31.86
2022-08-08T12:55:32.062Z,31.8
2022-08-08T13:00:20.326Z,29.53
2022-08-08T13:06:02.038Z,29.66
2022-08-08T13:10:11.041Z,29.51
2022-08-08T13:15:03.499Z,29.36
2022-08-08T13:20:09.056Z,29.08
2022-08-08T13:25:03.031Z,30.94
2022-08-08T13:30:02.547Z,32.69
2022-08-08T13:35:24.636Z,30.43
2022-08-08T13:40:02.712Z,31.36
2022-08-08T13:45:05.002Z,31.93
2022-08-08T13:50:57.457Z,32.21
2022-08-08T13:55:03.781Z,30.08
2022-08-08T14:00:03.361Z,32.78
2022-08-08T14:05:20.768Z,31.16
2022-08-08T14:10:17.329Z,30.85
2022-08-08T14:15:03.351Z,29.25
2022-08-08T14:20:25.143Z,29.03
2022-08-08T14:25:17.805Z,32.57
2022-08-08T14:30:17.256Z,33
2022-08-08T14:35:04.901Z,31.13
2022-08-08T14:40:07.087Z,29.36
2022-08-08T14:45:03.986Z,29.16
2022-08-08T14:50:21.339Z,29.69
2022-08-08T14:55:04.415Z,29.47
2022-08-08T15:00:02.384Z,29.25
2022-08-08T15:05:12.929Z,29.01
2022-08-08T15:10:04.265Z,28.59
2022-08-08T15:15:10.044Z,28.56
2022-08-08T15:20:05.156Z,27.93
2022-08-08T15:25:33.046Z,27.99
2022-08-08T15:30:04.583Z,28.53
2022-08-08T15:35:07.691Z,28.8
2022-08-08T15:40:03.547Z,29.45
2022-08-08T15:45:03.421Z,29.75
2022-08-08T15:50:02.976Z,29.55
2022-08-08T15:55:03.318Z,28.32
2022-08-08T16:00:28.666Z,28.89
2022-08-08T16:05:14.686Z,30.82
2022-08-08T16:15:02.860Z,29.33
2022-08-08T16:20:03.154Z,30.11
2022-08-08T16:25:06.419Z,29.59
2022-08-08T16:30:36.612Z,29.51
2022-08-08T16:35:02.596Z,28.84
2022-08-08T16:40:04.399Z,28.4
2022-08-08T16:46:44.979Z,28.06
2022-08-08T16:50:03.501Z,27.74
2022-08-08T16:55:57.565Z,27.42
2022-08-08T17:05:03.619Z,26.77
2022-08-08T17:10:02.368Z,26.56
2022-08-08T17:15:21.371Z,26.42
2022-08-08T17:20:02.982Z,26.25
2022-08-08T17:25:02.885Z,26.17
2022-08-08T17:30:14.923Z,26.25
2022-08-08T17:36:31.265Z,26.07
2022-08-08T17:40:15.563Z,26.05
2022-08-08T17:45:02.722Z,26.53
2022-08-08T17:50:04.613Z,26.67
2022-08-08T17:56:08.837Z,27
2022-08-08T18:00:03.721Z,26.75
2022-08-08T18:05:05.034Z,26.3
2022-08-08T18:10:02.786Z,26.1
2022-08-08T18:15:10.106Z,25.58
2022-08-08T18:21:00.035Z,25.23
2022-08-08T18:25:06.508Z,24.91
2022-08-08T18:30:03.263Z,24.4
2022-08-08T18:35:16.987Z,23.81
2022-08-08T18:40:02.889Z,23.32
2022-08-08T18:46:57.709Z,22.95
2022-08-08T18:50:03.869Z,22.77
2022-08-08T18:55:11.820Z,22.84
2022-08-08T19:00:03.308Z,22.66
2022-08-08T19:05:05.612Z,22.19
2022-08-08T19:10:16.908Z,21.98
2022-08-08T19:15:03.972Z,21.69
2022-08-08T19:20:06.343Z,21.23
2022-08-08T19:26:28.360Z,21
2022-08-08T19:30:03.196Z,20.5
2022-08-08T19:35:05.900Z,20.07
2022-08-08T19:40:06.763Z,20.15
2022-08-08T19:45:07.611Z,20.32
2022-08-08T19:50:02.898Z,20.51
2022-08-08T19:55:06.491Z,20.23
2022-08-08T20:00:31.933Z,20.51
2022-08-08T20:05:03.084Z,20.45
2022-08-08T20:10:03.293Z,20.19
2022-08-08T20:15:17.394Z,19.96
2022-08-08T20:20:03.188Z,20.44
2022-08-08T20:25:03.284Z,20.78
2022-08-08T20:30:03.390Z,20.94
2022-08-08T20:35:02.960Z,20.98
2022-08-08T20:40:03.046Z,20.89
2022-08-08T20:45:03.509Z,20.49
2022-08-08T20:50:02.834Z,19.96
2022-08-08T20:55:28.016Z,19.71
2022-08-08T21:00:03.072Z,19.62
2022-08-08T21:05:03.173Z,19.71
2022-08-08T21:10:13.695Z,19.61
2022-08-08T21:15:09.340Z,19.44
2022-08-08T21:20:04.101Z,19.57
2022-08-08T21:25:04.937Z,19.74
2022-08-08T21:30:13.696Z,19.86
2022-08-08T21:36:19.977Z,19.94
2022-08-08T21:40:08.207Z,19.82
2022-08-08T21:48:21.511Z,19.75
2022-08-08T21:50:03.618Z,19.58
2022-08-08T21:56:46.584Z,19.61
2022-08-08T22:00:07.162Z,19.48
2022-08-08T22:05:04.283Z,19.53
2022-08-08T22:10:02.385Z,19.2
2022-08-08T22:15:05.114Z,18.96
2022-08-08T22:20:10.423Z,18.53
2022-08-08T22:25:26.179Z,18.45
2022-08-08T22:30:04.970Z,18.27
2022-08-08T22:35:04.193Z,18.11
2022-08-08T22:40:03.109Z,17.96
2022-08-08T22:45:03.122Z,17.99
2022-08-08T22:50:02.612Z,18.27
2022-08-08T22:55:06.510Z,18.28
2022-08-08T23:00:04.640Z,18.23
2022-08-08T23:05:14.790Z,18.27
2022-08-08T23:10:02.869Z,18.24
2022-08-08T23:16:40.257Z,18.23
2022-08-08T23:20:03.029Z,18.06
2022-08-08T23:25:02.389Z,17.92
2022-08-08T23:30:04.476Z,17.82
2022-08-08T23:35:17.116Z,17.76
2022-08-08T23:40:02.768Z,17.71
2022-08-08T23:45:03.792Z,17.62
2022-08-08T23:50:05.827Z,17.64
2022-08-08T23:55:23.500Z,17.32
